マニラ/ニノイ・アキノ の空港の天気 - METARとTAF

ニノイ・アキノ国際空港 ( RPLL / MNL ) - フィリピン マニラ
飛行場実況気象(Metar)
観測時間04/25 14:00 PHT (04/25 06:00 UTC)
風向・風速北東 5m/s
視程10km以上
天気現象
少しの雲 雲底高度 760m
気温34℃
湿度53%
気圧1007hPa
METARRPLL 250600Z 05010KT 9999 FEW025 34/23 Q1007 NOSIG RMK A2974
過去の天気等 Google飛行場航空写真 Wunderground天気予報

過去48時間のMETAR

飛行場予報(TAF)
発表時間: 4/25 13:00 PHT (4/25 05:00 UTC)
予報対象時間: 25日14時 PHT ~ 26日20時 PHT
風向・風速東南東 3m/s
視程10km以上
少しの雲 雲底高度 760m
全天の4割程度の雲 雲底高度 3,050m
25日14時 PHT ~ 25日20時 PHT に一時的に
風向・風速南東 5m/s
視程9,000m
天気現象弱いしゅう雨
少しの積乱雲 雲底高度 700m
全天の4割程度の雲 雲底高度 760m
全天の8割程度の雲 雲底高度 2,740m
25日20時 PHT ~ 26日2時 PHT に一時的に
風向・風速東 3m/s
少しの雲 雲底高度 760m
全天の8割程度の雲 雲底高度 3,050m
TAF RPLL 250500Z 2506/2612 12006KT 9999 FEW025 SCT100 TX35/2506Z TN27/2522Z
TEMPO 2506/2512 14010KT 9000 -SHRA FEW023CB SCT025 BKN090
TEMPO 2512/2518 10005KT FEW025 BKN100